sensor_id;sensor_type;location;lat;lon;timestamp;temperature;humidity
36800;DHT22;22752;51.960;5.886;2023-08-31T00:02:11;11.80;99.90
36800;DHT22;22752;51.960;5.886;2023-08-31T00:04:36;11.80;99.90
36800;DHT22;22752;51.960;5.886;2023-08-31T00:07:02;11.80;99.90
36800;DHT22;22752;51.960;5.886;2023-08-31T00:09:28;11.70;99.90
36800;DHT22;22752;51.960;5.886;2023-08-31T00:11:57;11.70;99.90
36800;DHT22;22752;51.960;5.886;2023-08-31T00:14:23;11.70;99.90
36800;DHT22;22752;51.960;5.886;2023-08-31T00:16:49;11.70;99.90
36800;DHT22;22752;51.960;5.886;2023-08-31T00:19:16;11.70;99.90
36800;DHT22;22752;51.960;5.886;2023-08-31T00:21:42;11.70;99.90
36800;DHT22;22752;51.960;5.886;2023-08-31T00:24:08;11.70;99.90
36800;DHT22;22752;51.960;5.886;2023-08-31T00:26:38;11.70;99.90
36800;DHT22;22752;51.960;5.886;2023-08-31T00:29:06;11.70;99.90
36800;DHT22;22752;51.960;5.886;2023-08-31T00:31:32;11.70;99.90
36800;DHT22;22752;51.960;5.886;2023-08-31T00:33:59;11.70;99.90
36800;DHT22;22752;51.960;5.886;2023-08-31T00:36:31;11.70;99.90
36800;DHT22;22752;51.960;5.886;2023-08-31T00:38:56;11.70;99.90
36800;DHT22;22752;51.960;5.886;2023-08-31T00:41:22;11.70;99.90
36800;DHT22;22752;51.960;5.886;2023-08-31T00:43:48;11.70;99.90
36800;DHT22;22752;51.960;5.886;2023-08-31T00:46:14;11.70;99.90
36800;DHT22;22752;51.960;5.886;2023-08-31T00:48:40;11.70;99.90
36800;DHT22;22752;51.960;5.886;2023-08-31T00:51:07;11.70;99.90
36800;DHT22;22752;51.960;5.886;2023-08-31T00:53:33;11.70;99.90
36800;DHT22;22752;51.960;5.886;2023-08-31T00:56:00;11.70;99.90
36800;DHT22;22752;51.960;5.886;2023-08-31T00:58:26;11.70;99.90
36800;DHT22;22752;51.960;5.886;2023-08-31T01:01:11;11.70;99.90
36800;DHT22;22752;51.960;5.886;2023-08-31T01:06:46;11.70;99.90
36800;DHT22;22752;51.960;5.886;2023-08-31T01:12:04;11.60;99.90
36800;DHT22;22752;51.960;5.886;2023-08-31T01:14:37;11.60;99.90
36800;DHT22;22752;51.960;5.886;2023-08-31T01:17:07;11.60;99.90
36800;DHT22;22752;51.960;5.886;2023-08-31T01:19:52;11.60;99.90
36800;DHT22;22752;51.960;5.886;2023-08-31T01:24:59;11.70;99.90
36800;DHT22;22752;51.960;5.886;2023-08-31T01:27:31;11.60;99.90
36800;DHT22;22752;51.960;5.886;2023-08-31T01:30:00;11.60;99.90
36800;DHT22;22752;51.960;5.886;2023-08-31T01:32:26;11.60;99.90
36800;DHT22;22752;51.960;5.886;2023-08-31T01:34:52;11.60;99.90
36800;DHT22;22752;51.960;5.886;2023-08-31T01:37:25;11.60;99.90
36800;DHT22;22752;51.960;5.886;2023-08-31T01:39:56;11.70;99.90
36800;DHT22;22752;51.960;5.886;2023-08-31T01:42:26;11.70;99.90
36800;DHT22;22752;51.960;5.886;2023-08-31T01:44:53;11.70;99.90
36800;DHT22;22752;51.960;5.886;2023-08-31T01:47:20;11.70;99.90
36800;DHT22;22752;51.960;5.886;2023-08-31T01:49:46;11.80;99.90
36800;DHT22;22752;51.960;5.886;2023-08-31T01:52:12;11.90;99.90
36800;DHT22;22752;51.960;5.886;2023-08-31T01:54:37;12.00;99.90
36800;DHT22;22752;51.960;5.886;2023-08-31T01:57:03;12.10;99.90
36800;DHT22;22752;51.960;5.886;2023-08-31T01:59:29;12.10;99.90
36800;DHT22;22752;51.960;5.886;2023-08-31T02:01:55;12.10;99.90
36800;DHT22;22752;51.960;5.886;2023-08-31T02:04:22;12.20;99.90
36800;DHT22;22752;51.960;5.886;2023-08-31T02:06:47;12.20;99.90
36800;DHT22;22752;51.960;5.886;2023-08-31T02:09:14;12.20;99.90
36800;DHT22;22752;51.960;5.886;2023-08-31T02:11:40;12.20;99.90
36800;DHT22;22752;51.960;5.886;2023-08-31T02:14:05;12.30;99.90
36800;DHT22;22752;51.960;5.886;2023-08-31T02:16:33;12.30;99.90
36800;DHT22;22752;51.960;5.886;2023-08-31T02:18:59;12.30;99.90
36800;DHT22;22752;51.960;5.886;2023-08-31T02:21:25;12.40;99.90
36800;DHT22;22752;51.960;5.886;2023-08-31T02:23:51;12.30;99.90
36800;DHT22;22752;51.960;5.886;2023-08-31T02:26:16;12.40;99.90
36800;DHT22;22752;51.960;5.886;2023-08-31T02:28:42;12.40;99.90
36800;DHT22;22752;51.960;5.886;2023-08-31T02:31:09;12.30;99.90
36800;DHT22;22752;51.960;5.886;2023-08-31T02:33:35;12.30;99.90
36800;DHT22;22752;51.960;5.886;2023-08-31T02:36:01;12.30;99.90
36800;DHT22;22752;51.960;5.886;2023-08-31T02:38:27;12.30;99.90
36800;DHT22;22752;51.960;5.886;2023-08-31T02:40:53;12.30;99.90
36800;DHT22;22752;51.960;5.886;2023-08-31T02:43:18;12.40;99.90
36800;DHT22;22752;51.960;5.886;2023-08-31T02:45:44;12.40;99.90
36800;DHT22;22752;51.960;5.886;2023-08-31T02:48:10;12.40;99.90
36800;DHT22;22752;51.960;5.886;2023-08-31T02:50:35;12.30;99.90
36800;DHT22;22752;51.960;5.886;2023-08-31T02:53:01;12.30;99.90
36800;DHT22;22752;51.960;5.886;2023-08-31T02:55:27;12.30;99.90
36800;DHT22;22752;51.960;5.886;2023-08-31T02:57:53;12.20;99.90
36800;DHT22;22752;51.960;5.886;2023-08-31T03:00:19;12.20;99.90
36800;DHT22;22752;51.960;5.886;2023-08-31T03:02:50;12.20;99.90
36800;DHT22;22752;51.960;5.886;2023-08-31T03:05:19;12.20;99.90
36800;DHT22;22752;51.960;5.886;2023-08-31T03:07:46;12.20;99.90
36800;DHT22;22752;51.960;5.886;2023-08-31T03:10:12;12.30;99.90
36800;DHT22;22752;51.960;5.886;2023-08-31T03:12:38;12.40;99.90
36800;DHT22;22752;51.960;5.886;2023-08-31T03:15:05;12.50;99.90
36800;DHT22;22752;51.960;5.886;2023-08-31T03:17:31;12.50;99.90
36800;DHT22;22752;51.960;5.886;2023-08-31T03:19:57;12.50;99.90
36800;DHT22;22752;51.960;5.886;2023-08-31T03:22:22;12.60;99.90
36800;DHT22;22752;51.960;5.886;2023-08-31T03:24:48;12.60;99.90
36800;DHT22;22752;51.960;5.886;2023-08-31T03:27:14;12.60;99.90
36800;DHT22;22752;51.960;5.886;2023-08-31T03:29:41;12.60;99.90
36800;DHT22;22752;51.960;5.886;2023-08-31T03:32:06;12.60;99.90
36800;DHT22;22752;51.960;5.886;2023-08-31T03:34:32;12.60;99.90
36800;DHT22;22752;51.960;5.886;2023-08-31T03:36:59;12.50;99.90
36800;DHT22;22752;51.960;5.886;2023-08-31T03:39:25;12.50;99.90
36800;DHT22;22752;51.960;5.886;2023-08-31T03:41:51;12.50;99.90
36800;DHT22;22752;51.960;5.886;2023-08-31T03:44:17;12.50;99.90
36800;DHT22;22752;51.960;5.886;2023-08-31T03:46:43;12.40;99.90
36800;DHT22;22752;51.960;5.886;2023-08-31T03:49:08;12.40;99.90
36800;DHT22;22752;51.960;5.886;2023-08-31T03:51:34;12.40;99.90
36800;DHT22;22752;51.960;5.886;2023-08-31T03:54:00;12.30;99.90
36800;DHT22;22752;51.960;5.886;2023-08-31T03:56:26;12.30;99.90
36800;DHT22;22752;51.960;5.886;2023-08-31T03:58:52;12.30;99.90
36800;DHT22;22752;51.960;5.886;2023-08-31T04:01:18;12.30;99.90
36800;DHT22;22752;51.960;5.886;2023-08-31T04:03:43;12.30;99.90
36800;DHT22;22752;51.960;5.886;2023-08-31T04:06:09;12.30;99.90
36800;DHT22;22752;51.960;5.886;2023-08-31T04:08:35;12.30;99.90
36800;DHT22;22752;51.960;5.886;2023-08-31T04:11:00;12.30;99.90
36800;DHT22;22752;51.960;5.886;2023-08-31T04:13:26;12.30;99.90
36800;DHT22;22752;51.960;5.886;2023-08-31T04:15:52;12.30;99.90
36800;DHT22;22752;51.960;5.886;2023-08-31T04:18:18;12.30;99.90
36800;DHT22;22752;51.960;5.886;2023-08-31T04:20:52;12.20;99.90
36800;DHT22;22752;51.960;5.886;2023-08-31T04:23:19;12.20;99.90
36800;DHT22;22752;51.960;5.886;2023-08-31T04:25:45;12.20;99.90
36800;DHT22;22752;51.960;5.886;2023-08-31T04:28:11;12.20;99.90
36800;DHT22;22752;51.960;5.886;2023-08-31T04:30:37;12.20;99.90
36800;DHT22;22752;51.960;5.886;2023-08-31T04:33:04;12.30;99.90
36800;DHT22;22752;51.960;5.886;2023-08-31T04:35:30;12.30;99.90
36800;DHT22;22752;51.960;5.886;2023-08-31T04:37:57;12.40;99.90
36800;DHT22;22752;51.960;5.886;2023-08-31T04:40:23;12.40;99.90
36800;DHT22;22752;51.960;5.886;2023-08-31T04:42:49;12.40;99.90
36800;DHT22;22752;51.960;5.886;2023-08-31T04:45:15;12.50;99.90
36800;DHT22;22752;51.960;5.886;2023-08-31T04:47:41;12.50;99.90
36800;DHT22;22752;51.960;5.886;2023-08-31T04:50:07;12.50;99.90
36800;DHT22;22752;51.960;5.886;2023-08-31T04:52:33;12.60;99.90
36800;DHT22;22752;51.960;5.886;2023-08-31T04:55:01;12.60;99.90
36800;DHT22;22752;51.960;5.886;2023-08-31T04:57:29;12.70;99.90
36800;DHT22;22752;51.960;5.886;2023-08-31T04:59:54;12.80;99.90
36800;DHT22;22752;51.960;5.886;2023-08-31T05:02:20;12.80;99.90
36800;DHT22;22752;51.960;5.886;2023-08-31T05:04:46;12.80;99.90
36800;DHT22;22752;51.960;5.886;2023-08-31T05:07:11;12.80;99.90
36800;DHT22;22752;51.960;5.886;2023-08-31T05:09:37;12.90;99.90
36800;DHT22;22752;51.960;5.886;2023-08-31T05:12:03;12.90;99.90
36800;DHT22;22752;51.960;5.886;2023-08-31T05:14:29;12.90;99.90
36800;DHT22;22752;51.960;5.886;2023-08-31T05:16:55;13.00;99.90
36800;DHT22;22752;51.960;5.886;2023-08-31T05:19:21;13.00;99.90
36800;DHT22;22752;51.960;5.886;2023-08-31T05:21:47;13.00;99.90
36800;DHT22;22752;51.960;5.886;2023-08-31T05:24:12;13.10;99.90
36800;DHT22;22752;51.960;5.886;2023-08-31T05:26:39;13.10;99.90
36800;DHT22;22752;51.960;5.886;2023-08-31T05:29:05;13.10;99.90
36800;DHT22;22752;51.960;5.886;2023-08-31T05:31:31;13.10;99.90
36800;DHT22;22752;51.960;5.886;2023-08-31T05:33:56;13.20;99.90
36800;DHT22;22752;51.960;5.886;2023-08-31T05:36:22;13.20;99.90
36800;DHT22;22752;51.960;5.886;2023-08-31T05:38:48;13.20;99.90
36800;DHT22;22752;51.960;5.886;2023-08-31T05:41:13;13.20;99.90
36800;DHT22;22752;51.960;5.886;2023-08-31T05:43:39;13.20;99.90
36800;DHT22;22752;51.960;5.886;2023-08-31T05:46:06;13.20;99.90
36800;DHT22;22752;51.960;5.886;2023-08-31T05:48:34;13.20;99.90
36800;DHT22;22752;51.960;5.886;2023-08-31T05:50:59;13.30;99.90
36800;DHT22;22752;51.960;5.886;2023-08-31T05:53:25;13.30;99.90
36800;DHT22;22752;51.960;5.886;2023-08-31T05:55:51;13.30;99.90
36800;DHT22;22752;51.960;5.886;2023-08-31T05:58:16;13.30;99.90
36800;DHT22;22752;51.960;5.886;2023-08-31T06:00:42;13.30;99.90
36800;DHT22;22752;51.960;5.886;2023-08-31T06:03:08;13.30;99.90
36800;DHT22;22752;51.960;5.886;2023-08-31T06:05:34;13.30;99.90
36800;DHT22;22752;51.960;5.886;2023-08-31T06:08:00;13.40;99.90
36800;DHT22;22752;51.960;5.886;2023-08-31T06:10:26;13.40;99.90
36800;DHT22;22752;51.960;5.886;2023-08-31T06:12:51;13.40;99.90
36800;DHT22;22752;51.960;5.886;2023-08-31T06:15:17;13.40;99.90
36800;DHT22;22752;51.960;5.886;2023-08-31T06:17:43;13.40;99.90
36800;DHT22;22752;51.960;5.886;2023-08-31T06:20:09;13.50;99.90
36800;DHT22;22752;51.960;5.886;2023-08-31T06:22:36;13.50;99.90
36800;DHT22;22752;51.960;5.886;2023-08-31T06:25:01;13.50;99.90
36800;DHT22;22752;51.960;5.886;2023-08-31T06:27:29;13.60;99.90
36800;DHT22;22752;51.960;5.886;2023-08-31T06:29:55;13.60;99.90
36800;DHT22;22752;51.960;5.886;2023-08-31T06:32:21;13.50;99.90
36800;DHT22;22752;51.960;5.886;2023-08-31T06:34:48;13.50;99.90
36800;DHT22;22752;51.960;5.886;2023-08-31T06:37:14;13.50;99.90
36800;DHT22;22752;51.960;5.886;2023-08-31T06:39:39;13.60;99.90
36800;DHT22;22752;51.960;5.886;2023-08-31T06:42:06;14.20;99.90
36800;DHT22;22752;51.960;5.886;2023-08-31T06:44:32;15.10;99.90
36800;DHT22;22752;51.960;5.886;2023-08-31T06:46:57;15.50;99.90
36800;DHT22;22752;51.960;5.886;2023-08-31T06:49:23;15.60;99.90
36800;DHT22;22752;51.960;5.886;2023-08-31T06:51:49;15.50;99.90
36800;DHT22;22752;51.960;5.886;2023-08-31T06:54:15;15.30;99.90
36800;DHT22;22752;51.960;5.886;2023-08-31T06:56:41;15.20;99.90
36800;DHT22;22752;51.960;5.886;2023-08-31T06:59:06;14.90;99.90
36800;DHT22;22752;51.960;5.886;2023-08-31T07:01:32;14.80;99.90
36800;DHT22;22752;51.960;5.886;2023-08-31T07:04:00;14.60;99.90
36800;DHT22;22752;51.960;5.886;2023-08-31T07:06:26;14.50;99.90
36800;DHT22;22752;51.960;5.886;2023-08-31T07:08:51;14.50;99.90
36800;DHT22;22752;51.960;5.886;2023-08-31T07:11:17;14.40;99.90
36800;DHT22;22752;51.960;5.886;2023-08-31T07:13:43;14.50;99.90
36800;DHT22;22752;51.960;5.886;2023-08-31T07:16:09;14.60;99.90
36800;DHT22;22752;51.960;5.886;2023-08-31T07:18:36;14.70;99.90
36800;DHT22;22752;51.960;5.886;2023-08-31T07:21:02;14.80;99.90
36800;DHT22;22752;51.960;5.886;2023-08-31T07:23:30;14.80;99.90
36800;DHT22;22752;51.960;5.886;2023-08-31T07:25:59;14.80;99.90
36800;DHT22;22752;51.960;5.886;2023-08-31T07:28:26;14.80;99.90
36800;DHT22;22752;51.960;5.886;2023-08-31T07:31:04;14.80;99.90
36800;DHT22;22752;51.960;5.886;2023-08-31T07:33:30;14.80;99.90
36800;DHT22;22752;51.960;5.886;2023-08-31T07:35:57;14.80;99.90
36800;DHT22;22752;51.960;5.886;2023-08-31T07:38:24;14.70;99.90
36800;DHT22;22752;51.960;5.886;2023-08-31T07:40:49;14.70;99.90
36800;DHT22;22752;51.960;5.886;2023-08-31T07:43:15;14.70;99.90
36800;DHT22;22752;51.960;5.886;2023-08-31T07:45:41;14.70;99.90
36800;DHT22;22752;51.960;5.886;2023-08-31T07:48:06;14.90;99.90
36800;DHT22;22752;51.960;5.886;2023-08-31T07:50:33;15.10;99.90
36800;DHT22;22752;51.960;5.886;2023-08-31T07:52:59;15.10;99.90
36800;DHT22;22752;51.960;5.886;2023-08-31T07:55:25;15.10;99.90
36800;DHT22;22752;51.960;5.886;2023-08-31T07:57:51;15.10;99.90
36800;DHT22;22752;51.960;5.886;2023-08-31T08:00:17;15.00;99.90
36800;DHT22;22752;51.960;5.886;2023-08-31T08:02:44;15.00;99.90
36800;DHT22;22752;51.960;5.886;2023-08-31T08:05:10;15.00;99.90
36800;DHT22;22752;51.960;5.886;2023-08-31T08:07:36;14.90;99.90
36800;DHT22;22752;51.960;5.886;2023-08-31T08:10:01;14.90;99.90
36800;DHT22;22752;51.960;5.886;2023-08-31T08:12:27;15.00;99.90
36800;DHT22;22752;51.960;5.886;2023-08-31T08:15:01;14.90;99.90
36800;DHT22;22752;51.960;5.886;2023-08-31T08:17:27;15.00;99.90
36800;DHT22;22752;51.960;5.886;2023-08-31T08:19:53;15.00;99.90
36800;DHT22;22752;51.960;5.886;2023-08-31T08:22:18;15.10;99.90
36800;DHT22;22752;51.960;5.886;2023-08-31T08:24:44;15.20;99.90
36800;DHT22;22752;51.960;5.886;2023-08-31T08:27:10;15.40;99.90
36800;DHT22;22752;51.960;5.886;2023-08-31T08:29:35;15.50;99.90
36800;DHT22;22752;51.960;5.886;2023-08-31T08:32:01;15.70;99.90
36800;DHT22;22752;51.960;5.886;2023-08-31T08:34:28;15.90;99.90
36800;DHT22;22752;51.960;5.886;2023-08-31T08:36:54;16.30;99.90
36800;DHT22;22752;51.960;5.886;2023-08-31T08:39:20;16.60;99.90
36800;DHT22;22752;51.960;5.886;2023-08-31T08:41:46;16.80;99.90
36800;DHT22;22752;51.960;5.886;2023-08-31T08:44:13;16.90;99.90
36800;DHT22;22752;51.960;5.886;2023-08-31T08:46:40;17.10;99.90
36800;DHT22;22752;51.960;5.886;2023-08-31T08:49:06;17.30;99.90
36800;DHT22;22752;51.960;5.886;2023-08-31T08:51:32;17.50;99.90
36800;DHT22;22752;51.960;5.886;2023-08-31T08:53:59;17.70;99.90
36800;DHT22;22752;51.960;5.886;2023-08-31T08:56:25;17.80;99.90
36800;DHT22;22752;51.960;5.886;2023-08-31T08:58:51;17.90;99.90
36800;DHT22;22752;51.960;5.886;2023-08-31T09:01:18;18.10;99.90
36800;DHT22;22752;51.960;5.886;2023-08-31T09:03:48;18.20;99.90
36800;DHT22;22752;51.960;5.886;2023-08-31T09:06:14;18.50;99.90
36800;DHT22;22752;51.960;5.886;2023-08-31T09:08:41;18.80;99.90
36800;DHT22;22752;51.960;5.886;2023-08-31T09:11:07;19.00;99.90
36800;DHT22;22752;51.960;5.886;2023-08-31T09:13:32;19.10;99.90
36800;DHT22;22752;51.960;5.886;2023-08-31T09:15:59;19.10;99.90
36800;DHT22;22752;51.960;5.886;2023-08-31T09:18:31;19.00;99.90
36800;DHT22;22752;51.960;5.886;2023-08-31T09:20:58;19.00;99.90
36800;DHT22;22752;51.960;5.886;2023-08-31T09:23:23;18.90;99.90
36800;DHT22;22752;51.960;5.886;2023-08-31T09:25:51;18.90;99.90
36800;DHT22;22752;51.960;5.886;2023-08-31T09:28:28;18.90;99.90
36800;DHT22;22752;51.960;5.886;2023-08-31T09:31:05;19.00;99.90
36800;DHT22;22752;51.960;5.886;2023-08-31T09:33:31;19.00;99.90
36800;DHT22;22752;51.960;5.886;2023-08-31T09:35:59;19.00;99.90
36800;DHT22;22752;51.960;5.886;2023-08-31T09:38:29;19.10;99.90
36800;DHT22;22752;51.960;5.886;2023-08-31T09:41:05;19.10;99.90
36800;DHT22;22752;51.960;5.886;2023-08-31T09:43:33;19.00;99.90
36800;DHT22;22752;51.960;5.886;2023-08-31T09:46:00;18.90;99.90
36800;DHT22;22752;51.960;5.886;2023-08-31T09:48:26;18.80;99.90
36800;DHT22;22752;51.960;5.886;2023-08-31T09:50:52;18.50;99.90
36800;DHT22;22752;51.960;5.886;2023-08-31T09:53:20;18.40;99.90
36800;DHT22;22752;51.960;5.886;2023-08-31T09:55:47;18.40;99.90
36800;DHT22;22752;51.960;5.886;2023-08-31T09:58:19;18.70;99.90
36800;DHT22;22752;51.960;5.886;2023-08-31T10:00:46;19.00;99.90
36800;DHT22;22752;51.960;5.886;2023-08-31T10:03:13;19.30;99.90
36800;DHT22;22752;51.960;5.886;2023-08-31T10:05:44;19.40;99.90
36800;DHT22;22752;51.960;5.886;2023-08-31T10:08:11;19.40;99.90
36800;DHT22;22752;51.960;5.886;2023-08-31T10:10:37;19.30;99.90
36800;DHT22;22752;51.960;5.886;2023-08-31T10:13:07;19.20;99.90
36800;DHT22;22752;51.960;5.886;2023-08-31T10:15:34;19.10;99.90
36800;DHT22;22752;51.960;5.886;2023-08-31T10:18:02;19.00;99.90
36800;DHT22;22752;51.960;5.886;2023-08-31T10:20:29;18.90;99.90
36800;DHT22;22752;51.960;5.886;2023-08-31T10:22:58;18.80;99.90
36800;DHT22;22752;51.960;5.886;2023-08-31T10:25:24;18.80;99.90
36800;DHT22;22752;51.960;5.886;2023-08-31T10:27:49;18.70;99.90
36800;DHT22;22752;51.960;5.886;2023-08-31T10:35:48;18.20;99.90
36800;DHT22;22752;51.960;5.886;2023-08-31T10:38:28;18.10;99.90
36800;DHT22;22752;51.960;5.886;2023-08-31T10:46:32;18.20;99.90
36800;DHT22;22752;51.960;5.886;2023-08-31T10:49:12;18.30;99.90
36800;DHT22;22752;51.960;5.886;2023-08-31T10:51:41;18.30;99.90
36800;DHT22;22752;51.960;5.886;2023-08-31T10:59:21;18.50;99.90
36800;DHT22;22752;51.960;5.886;2023-08-31T11:02:00;18.60;99.90
36800;DHT22;22752;51.960;5.886;2023-08-31T11:04:29;18.70;99.90
36800;DHT22;22752;51.960;5.886;2023-08-31T11:07:18;18.70;99.90
36800;DHT22;22752;51.960;5.886;2023-08-31T11:09:45;18.80;99.90
36800;DHT22;22752;51.960;5.886;2023-08-31T11:12:12;18.80;99.90
36800;DHT22;22752;51.960;5.886;2023-08-31T11:14:38;18.80;99.90
36800;DHT22;22752;51.960;5.886;2023-08-31T11:17:04;18.80;99.90
36800;DHT22;22752;51.960;5.886;2023-08-31T11:19:32;18.90;99.90
36800;DHT22;22752;51.960;5.886;2023-08-31T11:21:59;18.90;99.90
36800;DHT22;22752;51.960;5.886;2023-08-31T11:24:26;18.90;99.90
36800;DHT22;22752;51.960;5.886;2023-08-31T11:26:52;18.90;99.90
36800;DHT22;22752;51.960;5.886;2023-08-31T11:29:20;19.00;99.90
36800;DHT22;22752;51.960;5.886;2023-08-31T11:31:50;19.00;99.90
36800;DHT22;22752;51.960;5.886;2023-08-31T11:34:17;19.20;99.90
36800;DHT22;22752;51.960;5.886;2023-08-31T11:36:44;19.30;99.90
36800;DHT22;22752;51.960;5.886;2023-08-31T11:39:14;19.40;99.90
36800;DHT22;22752;51.960;5.886;2023-08-31T11:41:43;19.40;99.90
36800;DHT22;22752;51.960;5.886;2023-08-31T11:44:14;19.30;99.90
36800;DHT22;22752;51.960;5.886;2023-08-31T11:46:45;19.20;99.90
36800;DHT22;22752;51.960;5.886;2023-08-31T11:49:16;19.10;99.90
36800;DHT22;22752;51.960;5.886;2023-08-31T11:51:43;19.00;99.90
36800;DHT22;22752;51.960;5.886;2023-08-31T11:54:10;18.90;99.90
36800;DHT22;22752;51.960;5.886;2023-08-31T11:56:43;18.90;99.90
36800;DHT22;22752;51.960;5.886;2023-08-31T11:59:12;19.00;99.90
36800;DHT22;22752;51.960;5.886;2023-08-31T12:01:42;19.20;99.90
36800;DHT22;22752;51.960;5.886;2023-08-31T12:04:21;19.20;99.90
36800;DHT22;22752;51.960;5.886;2023-08-31T12:06:50;19.40;99.90
36800;DHT22;22752;51.960;5.886;2023-08-31T12:09:16;19.40;99.90
36800;DHT22;22752;51.960;5.886;2023-08-31T12:11:48;19.60;99.90
36800;DHT22;22752;51.960;5.886;2023-08-31T12:14:24;19.70;99.90
36800;DHT22;22752;51.960;5.886;2023-08-31T12:16:52;19.90;99.90
36800;DHT22;22752;51.960;5.886;2023-08-31T12:19:18;19.90;99.90
36800;DHT22;22752;51.960;5.886;2023-08-31T12:21:45;20.00;99.90
36800;DHT22;22752;51.960;5.886;2023-08-31T12:24:12;19.90;99.90
36800;DHT22;22752;51.960;5.886;2023-08-31T12:26:38;19.90;99.90
36800;DHT22;22752;51.960;5.886;2023-08-31T12:29:04;19.80;99.90
36800;DHT22;22752;51.960;5.886;2023-08-31T12:31:30;19.80;99.90
36800;DHT22;22752;51.960;5.886;2023-08-31T12:33:58;19.90;99.90
36800;DHT22;22752;51.960;5.886;2023-08-31T12:36:27;20.00;99.90
36800;DHT22;22752;51.960;5.886;2023-08-31T12:38:52;20.10;99.90
36800;DHT22;22752;51.960;5.886;2023-08-31T12:41:18;20.20;99.90
36800;DHT22;22752;51.960;5.886;2023-08-31T12:43:45;20.20;99.90
36800;DHT22;22752;51.960;5.886;2023-08-31T12:46:11;20.20;99.90
36800;DHT22;22752;51.960;5.886;2023-08-31T12:48:39;20.20;99.90
36800;DHT22;22752;51.960;5.886;2023-08-31T12:51:05;20.30;99.90
36800;DHT22;22752;51.960;5.886;2023-08-31T12:53:31;20.30;99.90
36800;DHT22;22752;51.960;5.886;2023-08-31T12:55:56;20.40;99.90
36800;DHT22;22752;51.960;5.886;2023-08-31T12:58:22;20.40;99.90
36800;DHT22;22752;51.960;5.886;2023-08-31T13:00:48;20.40;99.90
36800;DHT22;22752;51.960;5.886;2023-08-31T13:03:15;20.40;99.90
36800;DHT22;22752;51.960;5.886;2023-08-31T13:05:41;20.40;99.90
36800;DHT22;22752;51.960;5.886;2023-08-31T13:08:08;20.50;99.90
36800;DHT22;22752;51.960;5.886;2023-08-31T13:10:34;20.50;99.90
36800;DHT22;22752;51.960;5.886;2023-08-31T13:13:00;20.50;99.90
36800;DHT22;22752;51.960;5.886;2023-08-31T13:15:26;20.70;99.90
36800;DHT22;22752;51.960;5.886;2023-08-31T13:17:52;20.80;99.90
36800;DHT22;22752;51.960;5.886;2023-08-31T13:20:18;20.70;99.90
36800;DHT22;22752;51.960;5.886;2023-08-31T13:22:44;20.70;99.90
36800;DHT22;22752;51.960;5.886;2023-08-31T13:25:09;20.70;99.90
36800;DHT22;22752;51.960;5.886;2023-08-31T13:27:36;20.70;99.90
36800;DHT22;22752;51.960;5.886;2023-08-31T13:30:03;20.80;99.90
36800;DHT22;22752;51.960;5.886;2023-08-31T13:32:32;20.80;99.90
36800;DHT22;22752;51.960;5.886;2023-08-31T13:34:58;20.70;99.90
36800;DHT22;22752;51.960;5.886;2023-08-31T13:37:24;20.70;99.90
36800;DHT22;22752;51.960;5.886;2023-08-31T13:39:50;20.70;99.90
36800;DHT22;22752;51.960;5.886;2023-08-31T13:42:22;20.60;99.90
36800;DHT22;22752;51.960;5.886;2023-08-31T13:44:47;20.60;99.90
36800;DHT22;22752;51.960;5.886;2023-08-31T13:47:13;20.70;99.90
36800;DHT22;22752;51.960;5.886;2023-08-31T13:49:38;20.80;99.90
36800;DHT22;22752;51.960;5.886;2023-08-31T13:52:04;20.90;99.90
36800;DHT22;22752;51.960;5.886;2023-08-31T13:54:33;20.90;99.90
36800;DHT22;22752;51.960;5.886;2023-08-31T13:56:59;20.90;99.90
36800;DHT22;22752;51.960;5.886;2023-08-31T13:59:25;20.90;99.90
36800;DHT22;22752;51.960;5.886;2023-08-31T14:01:53;20.90;99.90
36800;DHT22;22752;51.960;5.886;2023-08-31T14:04:19;21.00;99.90
36800;DHT22;22752;51.960;5.886;2023-08-31T14:06:45;21.00;99.90
36800;DHT22;22752;51.960;5.886;2023-08-31T14:09:10;21.10;99.90
36800;DHT22;22752;51.960;5.886;2023-08-31T14:11:36;21.20;99.50
36800;DHT22;22752;51.960;5.886;2023-08-31T14:14:06;21.20;99.40
36800;DHT22;22752;51.960;5.886;2023-08-31T14:16:34;21.20;99.30
36800;DHT22;22752;51.960;5.886;2023-08-31T14:19:02;21.20;99.50
36800;DHT22;22752;51.960;5.886;2023-08-31T14:21:28;21.30;99.90
36800;DHT22;22752;51.960;5.886;2023-08-31T14:23:53;21.40;99.70
36800;DHT22;22752;51.960;5.886;2023-08-31T14:26:24;21.40;99.90
36800;DHT22;22752;51.960;5.886;2023-08-31T14:28:52;21.50;99.90
36800;DHT22;22752;51.960;5.886;2023-08-31T14:31:19;21.50;99.80
36800;DHT22;22752;51.960;5.886;2023-08-31T14:33:45;21.50;99.40
36800;DHT22;22752;51.960;5.886;2023-08-31T14:36:12;21.60;99.20
36800;DHT22;22752;51.960;5.886;2023-08-31T14:38:38;21.70;99.30
36800;DHT22;22752;51.960;5.886;2023-08-31T14:41:03;21.80;99.20
36800;DHT22;22752;51.960;5.886;2023-08-31T14:43:32;21.90;99.60
36800;DHT22;22752;51.960;5.886;2023-08-31T14:45:58;21.90;98.80
36800;DHT22;22752;51.960;5.886;2023-08-31T14:48:28;21.90;98.60
36800;DHT22;22752;51.960;5.886;2023-08-31T14:50:54;21.90;98.50
36800;DHT22;22752;51.960;5.886;2023-08-31T14:53:20;21.90;98.80
36800;DHT22;22752;51.960;5.886;2023-08-31T14:55:51;22.00;98.80
36800;DHT22;22752;51.960;5.886;2023-08-31T14:58:18;22.10;98.70
36800;DHT22;22752;51.960;5.886;2023-08-31T15:00:44;22.10;98.70
36800;DHT22;22752;51.960;5.886;2023-08-31T15:03:10;22.10;98.60
36800;DHT22;22752;51.960;5.886;2023-08-31T15:05:36;22.10;98.40
36800;DHT22;22752;51.960;5.886;2023-08-31T15:08:04;22.00;97.90
36800;DHT22;22752;51.960;5.886;2023-08-31T15:10:30;21.80;98.00
36800;DHT22;22752;51.960;5.886;2023-08-31T15:12:55;21.80;98.30
36800;DHT22;22752;51.960;5.886;2023-08-31T15:15:27;21.70;98.50
36800;DHT22;22752;51.960;5.886;2023-08-31T15:17:53;21.60;98.80
36800;DHT22;22752;51.960;5.886;2023-08-31T15:20:19;21.50;98.70
36800;DHT22;22752;51.960;5.886;2023-08-31T15:22:44;21.40;98.60
36800;DHT22;22752;51.960;5.886;2023-08-31T15:25:10;21.40;99.10
36800;DHT22;22752;51.960;5.886;2023-08-31T15:27:36;21.30;99.30
36800;DHT22;22752;51.960;5.886;2023-08-31T15:30:03;21.30;99.50
36800;DHT22;22752;51.960;5.886;2023-08-31T15:32:29;21.30;99.40
36800;DHT22;22752;51.960;5.886;2023-08-31T15:34:54;21.30;99.70
36800;DHT22;22752;51.960;5.886;2023-08-31T15:37:20;21.20;99.60
36800;DHT22;22752;51.960;5.886;2023-08-31T15:39:46;21.10;99.60
36800;DHT22;22752;51.960;5.886;2023-08-31T15:42:11;21.00;99.80
36800;DHT22;22752;51.960;5.886;2023-08-31T15:44:41;20.90;99.90
36800;DHT22;22752;51.960;5.886;2023-08-31T15:47:08;20.80;99.90
36800;DHT22;22752;51.960;5.886;2023-08-31T15:49:33;20.80;99.90
36800;DHT22;22752;51.960;5.886;2023-08-31T15:51:59;20.80;99.90
36800;DHT22;22752;51.960;5.886;2023-08-31T15:54:25;20.70;99.80